sensor_id;sensor_type;location;lat;lon;timestamp;noise_LAeq;noise_LA_min;noise_LA_max;noise_LA01;noise_LA95
57439;Laerm;73745;47.466;8.992;2023-10-31T00:01:00;43.46;41.75;47.26;;
57439;Laerm;73745;47.466;8.992;2023-10-31T00:03:28;43.31;41.61;48.99;;
57439;Laerm;73745;47.466;8.992;2023-10-31T00:05:54;43.45;41.68;54.56;;
57439;Laerm;73745;47.466;8.992;2023-10-31T00:08:28;43.64;41.89;47.22;;
57439;Laerm;73745;47.466;8.992;2023-10-31T00:10:56;43.63;41.96;49.23;;
57439;Laerm;73745;47.466;8.992;2023-10-31T00:13:21;43.70;42.06;54.23;;
57439;Laerm;73745;47.466;8.992;2023-10-31T00:15:47;43.72;41.94;47.76;;
57439;Laerm;73745;47.466;8.992;2023-10-31T00:18:13;43.91;42.03;50.84;;
57439;Laerm;73745;47.466;8.992;2023-10-31T00:20:38;55.32;42.29;73.30;;
57439;Laerm;73745;47.466;8.992;2023-10-31T00:23:04;44.10;42.35;47.59;;
57439;Laerm;73745;47.466;8.992;2023-10-31T00:25:30;44.53;42.35;49.90;;
57439;Laerm;73745;47.466;8.992;2023-10-31T00:27:55;45.31;42.22;49.81;;
57439;Laerm;73745;47.466;8.992;2023-10-31T00:30:21;43.84;42.09;54.46;;
57439;Laerm;73745;47.466;8.992;2023-10-31T00:32:46;43.92;42.09;50.21;;
57439;Laerm;73745;47.466;8.992;2023-10-31T00:35:11;44.17;42.47;52.42;;
57439;Laerm;73745;47.466;8.992;2023-10-31T00:37:40;43.63;41.89;49.69;;
57439;Laerm;73745;47.466;8.992;2023-10-31T00:40:11;43.74;42.03;57.88;;
57439;Laerm;73745;47.466;8.992;2023-10-31T00:42:42;43.95;41.89;50.68;;
57439;Laerm;73745;47.466;8.992;2023-10-31T00:45:10;44.29;42.22;49.92;;
57439;Laerm;73745;47.466;8.992;2023-10-31T00:47:36;44.10;42.16;51.17;;
57439;Laerm;73745;47.466;8.992;2023-10-31T00:50:02;43.87;42.29;48.58;;
57439;Laerm;73745;47.466;8.992;2023-10-31T00:52:27;44.00;42.35;46.64;;
57439;Laerm;73745;47.466;8.992;2023-10-31T00:54:53;43.99;42.35;49.77;;
57439;Laerm;73745;47.466;8.992;2023-10-31T00:57:21;44.04;42.16;51.47;;
57439;Laerm;73745;47.466;8.992;2023-10-31T00:59:46;43.82;42.16;47.84;;
57439;Laerm;73745;47.466;8.992;2023-10-31T01:02:12;43.68;41.89;46.89;;
57439;Laerm;73745;47.466;8.992;2023-10-31T01:04:37;43.93;41.96;46.82;;
57439;Laerm;73745;47.466;8.992;2023-10-31T01:07:03;44.41;42.47;50.39;;
57439;Laerm;73745;47.466;8.992;2023-10-31T01:09:28;44.22;42.35;48.71;;
57439;Laerm;73745;47.466;8.992;2023-10-31T01:11:54;44.09;42.41;47.57;;
57439;Laerm;73745;47.466;8.992;2023-10-31T01:14:20;44.13;42.29;46.07;;
57439;Laerm;73745;47.466;8.992;2023-10-31T01:16:48;44.19;42.41;47.00;;
57439;Laerm;73745;47.466;8.992;2023-10-31T01:19:14;44.06;42.09;48.25;;
57439;Laerm;73745;47.466;8.992;2023-10-31T01:21:39;45.29;42.47;55.20;;
57439;Laerm;73745;47.466;8.992;2023-10-31T01:24:05;49.42;42.41;68.29;;
57439;Laerm;73745;47.466;8.992;2023-10-31T01:26:30;44.14;42.35;47.24;;
57439;Laerm;73745;47.466;8.992;2023-10-31T01:28:58;44.33;42.29;48.39;;
57439;Laerm;73745;47.466;8.992;2023-10-31T01:31:23;44.20;42.16;49.06;;
57439;Laerm;73745;47.466;8.992;2023-10-31T01:33:49;44.05;42.22;50.91;;
57439;Laerm;73745;47.466;8.992;2023-10-31T01:36:17;46.01;42.65;54.87;;
57439;Laerm;73745;47.466;8.992;2023-10-31T01:38:43;44.71;42.41;50.05;;
57439;Laerm;73745;47.466;8.992;2023-10-31T01:41:09;44.48;42.88;46.97;;
57439;Laerm;73745;47.466;8.992;2023-10-31T01:43:35;44.44;42.47;48.26;;
57439;Laerm;73745;47.466;8.992;2023-10-31T01:46:04;44.45;42.71;48.48;;
57439;Laerm;73745;47.466;8.992;2023-10-31T01:48:30;44.23;42.47;47.14;;
57439;Laerm;73745;47.466;8.992;2023-10-31T01:50:58;44.26;42.53;50.58;;
57439;Laerm;73745;47.466;8.992;2023-10-31T01:53:24;44.50;42.76;50.41;;
57439;Laerm;73745;47.466;8.992;2023-10-31T01:55:51;46.17;42.65;58.07;;
57439;Laerm;73745;47.466;8.992;2023-10-31T01:58:20;44.25;42.59;46.45;;
57439;Laerm;73745;47.466;8.992;2023-10-31T02:00:54;44.32;42.59;48.16;;
57439;Laerm;73745;47.466;8.992;2023-10-31T02:03:19;44.42;42.47;46.45;;
57439;Laerm;73745;47.466;8.992;2023-10-31T02:05:45;50.32;42.71;66.82;;
57439;Laerm;73745;47.466;8.992;2023-10-31T02:08:11;44.40;42.53;46.91;;
57439;Laerm;73745;47.466;8.992;2023-10-31T02:10:36;44.35;42.71;46.45;;
57439;Laerm;73745;47.466;8.992;2023-10-31T02:13:14;44.62;42.69;49.41;;
57439;Laerm;73745;47.466;8.992;2023-10-31T02:15:43;44.38;42.71;47.26;;
57439;Laerm;73745;47.466;8.992;2023-10-31T02:18:08;44.41;42.59;46.80;;
57439;Laerm;73745;47.466;8.992;2023-10-31T02:20:34;46.52;42.88;59.97;;
57439;Laerm;73745;47.466;8.992;2023-10-31T02:23:00;44.44;42.53;46.62;;
57439;Laerm;73745;47.466;8.992;2023-10-31T02:25:25;44.57;42.47;46.59;;
57439;Laerm;73745;47.466;8.992;2023-10-31T02:27:50;44.62;42.82;47.63;;
57439;Laerm;73745;47.466;8.992;2023-10-31T02:30:16;44.37;42.53;46.30;;
57439;Laerm;73745;47.466;8.992;2023-10-31T02:32:42;44.42;42.76;48.90;;
57439;Laerm;73745;47.466;8.992;2023-10-31T02:35:07;44.58;42.53;47.77;;
57439;Laerm;73745;47.466;8.992;2023-10-31T02:37:33;44.61;42.59;49.18;;
57439;Laerm;73745;47.466;8.992;2023-10-31T02:40:00;44.33;42.41;46.43;;
57439;Laerm;73745;47.466;8.992;2023-10-31T02:42:28;44.48;42.71;47.20;;
57439;Laerm;73745;47.466;8.992;2023-10-31T02:44:53;44.74;42.88;49.00;;
57439;Laerm;73745;47.466;8.992;2023-10-31T02:47:19;45.81;43.04;60.54;;
57439;Laerm;73745;47.466;8.992;2023-10-31T02:49:44;44.55;42.82;51.15;;
57439;Laerm;73745;47.466;8.992;2023-10-31T02:52:10;44.77;42.65;48.48;;
57439;Laerm;73745;47.466;8.992;2023-10-31T02:54:36;44.71;42.88;50.38;;
57439;Laerm;73745;47.466;8.992;2023-10-31T02:57:02;44.86;42.82;47.77;;
57439;Laerm;73745;47.466;8.992;2023-10-31T02:59:27;46.95;43.14;57.74;;
57439;Laerm;73745;47.466;8.992;2023-10-31T03:01:53;45.44;42.65;55.11;;
57439;Laerm;73745;47.466;8.992;2023-10-31T03:04:18;44.52;42.82;47.79;;
57439;Laerm;73745;47.466;8.992;2023-10-31T03:06:44;45.16;42.88;57.06;;
57439;Laerm;73745;47.466;8.992;2023-10-31T03:09:10;44.89;43.04;51.70;;
57439;Laerm;73745;47.466;8.992;2023-10-31T03:11:38;45.08;42.98;50.24;;
57439;Laerm;73745;47.466;8.992;2023-10-31T03:14:03;44.83;43.04;47.20;;
57439;Laerm;73745;47.466;8.992;2023-10-31T03:16:29;44.71;42.53;52.59;;
57439;Laerm;73745;47.466;8.992;2023-10-31T03:18:55;45.06;42.93;50.09;;
57439;Laerm;73745;47.466;8.992;2023-10-31T03:21:20;50.18;43.49;73.80;;
57439;Laerm;73745;47.466;8.992;2023-10-31T03:23:49;47.67;42.88;61.55;;
57439;Laerm;73745;47.466;8.992;2023-10-31T03:26:20;51.33;43.24;68.78;;
57439;Laerm;73745;47.466;8.992;2023-10-31T03:28:46;45.47;43.14;54.12;;
57439;Laerm;73745;47.466;8.992;2023-10-31T03:31:18;46.75;43.04;66.40;;
57439;Laerm;73745;47.466;8.992;2023-10-31T03:33:43;45.39;43.39;50.69;;
57439;Laerm;73745;47.466;8.992;2023-10-31T03:36:09;47.42;43.39;55.03;;
57439;Laerm;73745;47.466;8.992;2023-10-31T03:38:35;45.53;43.24;52.38;;
57439;Laerm;73745;47.466;8.992;2023-10-31T03:41:00;46.14;43.81;54.04;;
57439;Laerm;73745;47.466;8.992;2023-10-31T03:43:26;47.45;42.88;58.14;;
57439;Laerm;73745;47.466;8.992;2023-10-31T03:45:51;50.25;43.49;68.23;;
57439;Laerm;73745;47.466;8.992;2023-10-31T03:48:17;47.57;43.49;59.76;;
57439;Laerm;73745;47.466;8.992;2023-10-31T03:50:42;45.63;42.76;61.89;;
57439;Laerm;73745;47.466;8.992;2023-10-31T03:53:08;46.82;42.82;61.56;;
57439;Laerm;73745;47.466;8.992;2023-10-31T03:55:34;52.35;43.68;73.84;;
57439;Laerm;73745;47.466;8.992;2023-10-31T03:57:59;46.08;43.72;53.28;;
57439;Laerm;73745;47.466;8.992;2023-10-31T04:00:28;50.09;43.68;67.05;;
57439;Laerm;73745;47.466;8.992;2023-10-31T04:02:53;46.53;43.99;57.43;;
57439;Laerm;73745;47.466;8.992;2023-10-31T04:05:19;46.06;43.63;53.93;;
57439;Laerm;73745;47.466;8.992;2023-10-31T04:07:48;45.74;43.54;49.74;;
57439;Laerm;73745;47.466;8.992;2023-10-31T04:10:14;46.05;43.68;50.24;;
57439;Laerm;73745;47.466;8.992;2023-10-31T04:12:40;45.85;43.63;49.44;;
57439;Laerm;73745;47.466;8.992;2023-10-31T04:15:06;51.32;43.24;65.89;;
57439;Laerm;73745;47.466;8.992;2023-10-31T04:17:45;47.24;43.81;57.75;;
57439;Laerm;73745;47.466;8.992;2023-10-31T04:20:11;46.00;43.72;51.05;;
57439;Laerm;73745;47.466;8.992;2023-10-31T04:22:36;46.23;43.54;51.98;;
57439;Laerm;73745;47.466;8.992;2023-10-31T04:25:03;46.51;43.54;51.50;;
57439;Laerm;73745;47.466;8.992;2023-10-31T04:27:28;55.88;43.94;82.66;;
57439;Laerm;73745;47.466;8.992;2023-10-31T04:29:54;47.14;43.72;54.10;;
57439;Laerm;73745;47.466;8.992;2023-10-31T04:32:19;47.46;44.35;55.78;;
57439;Laerm;73745;47.466;8.992;2023-10-31T04:34:44;47.73;44.92;54.25;;
57439;Laerm;73745;47.466;8.992;2023-10-31T04:37:10;47.35;44.27;56.24;;
57439;Laerm;73745;47.466;8.992;2023-10-31T04:39:35;47.12;44.23;55.83;;
57439;Laerm;73745;47.466;8.992;2023-10-31T04:42:01;48.00;44.35;62.95;;
57439;Laerm;73745;47.466;8.992;2023-10-31T04:44:26;47.43;43.89;64.57;;
57439;Laerm;73745;47.466;8.992;2023-10-31T04:46:51;46.58;44.39;54.13;;
57439;Laerm;73745;47.466;8.992;2023-10-31T04:49:17;48.36;44.07;65.94;;
57439;Laerm;73745;47.466;8.992;2023-10-31T04:51:42;47.11;44.39;51.94;;
57439;Laerm;73745;47.466;8.992;2023-10-31T04:54:08;48.28;44.58;66.49;;
57439;Laerm;73745;47.466;8.992;2023-10-31T04:56:34;47.11;44.47;58.85;;
57439;Laerm;73745;47.466;8.992;2023-10-31T04:58:59;51.39;44.27;67.57;;
57439;Laerm;73745;47.466;8.992;2023-10-31T05:01:25;50.36;44.15;66.90;;
57439;Laerm;73745;47.466;8.992;2023-10-31T05:03:51;59.00;47.59;72.63;;
57439;Laerm;73745;47.466;8.992;2023-10-31T05:06:20;53.54;44.51;70.13;;
57439;Laerm;73745;47.466;8.992;2023-10-31T05:08:46;48.08;44.87;54.04;;
57439;Laerm;73745;47.466;8.992;2023-10-31T05:11:12;46.60;44.11;51.59;;
57439;Laerm;73745;47.466;8.992;2023-10-31T05:13:40;46.93;44.23;54.16;;
57439;Laerm;73745;47.466;8.992;2023-10-31T05:16:06;47.27;44.54;52.17;;
57439;Laerm;73745;47.466;8.992;2023-10-31T05:18:31;48.18;44.51;56.83;;
57439;Laerm;73745;47.466;8.992;2023-10-31T05:20:57;51.16;44.54;64.63;;
57439;Laerm;73745;47.466;8.992;2023-10-31T05:23:22;47.63;44.51;56.62;;
57439;Laerm;73745;47.466;8.992;2023-10-31T05:25:47;47.46;44.11;55.78;;
57439;Laerm;73745;47.466;8.992;2023-10-31T05:28:13;47.29;44.43;52.29;;
57439;Laerm;73745;47.466;8.992;2023-10-31T05:30:38;48.74;45.01;54.65;;
57439;Laerm;73745;47.466;8.992;2023-10-31T05:33:04;50.28;45.11;62.80;;
57439;Laerm;73745;47.466;8.992;2023-10-31T05:35:29;47.96;45.11;56.27;;
57439;Laerm;73745;47.466;8.992;2023-10-31T05:37:55;48.47;44.94;55.16;;
57439;Laerm;73745;47.466;8.992;2023-10-31T05:40:21;47.66;44.62;54.45;;
57439;Laerm;73745;47.466;8.992;2023-10-31T05:42:50;48.56;44.51;59.53;;
57439;Laerm;73745;47.466;8.992;2023-10-31T05:45:15;50.43;44.62;63.53;;
57439;Laerm;73745;47.466;8.992;2023-10-31T05:47:41;53.28;44.43;70.32;;
57439;Laerm;73745;47.466;8.992;2023-10-31T05:50:07;49.95;44.87;60.66;;
57439;Laerm;73745;47.466;8.992;2023-10-31T05:52:32;54.77;45.17;77.93;;
57439;Laerm;73745;47.466;8.992;2023-10-31T05:54:58;60.81;45.17;78.65;;
57439;Laerm;73745;47.466;8.992;2023-10-31T05:57:23;58.30;44.76;77.50;;
57439;Laerm;73745;47.466;8.992;2023-10-31T05:59:49;59.04;44.72;77.29;;
57439;Laerm;73745;47.466;8.992;2023-10-31T06:02:15;49.45;45.07;61.02;;
57439;Laerm;73745;47.466;8.992;2023-10-31T06:04:40;48.02;45.01;56.30;;
57439;Laerm;73745;47.466;8.992;2023-10-31T06:07:06;53.92;44.62;70.82;;
57439;Laerm;73745;47.466;8.992;2023-10-31T06:09:32;56.00;44.86;71.01;;
57439;Laerm;73745;47.466;8.992;2023-10-31T06:12:00;62.29;44.87;79.12;;
57439;Laerm;73745;47.466;8.992;2023-10-31T06:14:26;52.77;44.51;67.31;;
57439;Laerm;73745;47.466;8.992;2023-10-31T06:16:52;52.30;45.20;68.30;;
57439;Laerm;73745;47.466;8.992;2023-10-31T06:19:17;49.40;45.51;60.96;;
57439;Laerm;73745;47.466;8.992;2023-10-31T06:21:43;49.16;45.48;57.50;;
57439;Laerm;73745;47.466;8.992;2023-10-31T06:24:09;54.61;45.51;76.47;;
57439;Laerm;73745;47.466;8.992;2023-10-31T06:26:34;52.56;45.11;68.41;;
57439;Laerm;73745;47.466;8.992;2023-10-31T06:29:00;63.43;45.51;78.29;;
57439;Laerm;73745;47.466;8.992;2023-10-31T06:31:25;51.93;45.11;65.76;;
57439;Laerm;73745;47.466;8.992;2023-10-31T06:33:51;48.05;44.58;56.54;;
57439;Laerm;73745;47.466;8.992;2023-10-31T06:36:17;50.39;45.54;60.65;;
57439;Laerm;73745;47.466;8.992;2023-10-31T06:38:42;52.25;46.55;63.82;;
57439;Laerm;73745;47.466;8.992;2023-10-31T06:41:08;50.88;45.11;64.62;;
57439;Laerm;73745;47.466;8.992;2023-10-31T06:43:33;52.68;45.33;67.20;;
57439;Laerm;73745;47.466;8.992;2023-10-31T06:46:00;53.70;45.11;70.68;;
57439;Laerm;73745;47.466;8.992;2023-10-31T06:48:25;54.85;46.28;70.12;;
57439;Laerm;73745;47.466;8.992;2023-10-31T06:50:51;52.88;46.33;67.81;;
57439;Laerm;73745;47.466;8.992;2023-10-31T06:53:16;52.60;45.14;65.23;;
57439;Laerm;73745;47.466;8.992;2023-10-31T06:55:42;51.05;45.69;64.58;;
57439;Laerm;73745;47.466;8.992;2023-10-31T06:58:08;56.90;45.75;77.78;;
57439;Laerm;73745;47.466;8.992;2023-10-31T07:00:33;50.84;45.23;64.93;;
57439;Laerm;73745;47.466;8.992;2023-10-31T07:02:59;55.91;44.39;82.35;;
57439;Laerm;73745;47.466;8.992;2023-10-31T07:05:30;49.21;44.76;65.32;;
57439;Laerm;73745;47.466;8.992;2023-10-31T07:07:55;53.72;46.10;82.33;;
57439;Laerm;73745;47.466;8.992;2023-10-31T07:10:21;55.11;46.45;71.18;;
57439;Laerm;73745;47.466;8.992;2023-10-31T07:12:47;49.63;46.08;61.75;;
57439;Laerm;73745;47.466;8.992;2023-10-31T07:15:12;49.91;45.39;61.33;;
57439;Laerm;73745;47.466;8.992;2023-10-31T07:17:52;50.91;46.52;62.32;;
57439;Laerm;73745;47.466;8.992;2023-10-31T07:20:17;54.74;46.07;70.97;;
57439;Laerm;73745;47.466;8.992;2023-10-31T07:22:43;50.74;46.30;60.93;;
57439;Laerm;73745;47.466;8.992;2023-10-31T07:25:08;57.89;46.32;82.83;;
57439;Laerm;73745;47.466;8.992;2023-10-31T07:27:41;53.82;45.51;71.64;;
57439;Laerm;73745;47.466;8.992;2023-10-31T07:30:07;50.16;45.57;59.29;;
57439;Laerm;73745;47.466;8.992;2023-10-31T07:32:33;53.64;45.57;68.03;;
57439;Laerm;73745;47.466;8.992;2023-10-31T07:34:58;51.87;45.86;64.61;;
57439;Laerm;73745;47.466;8.992;2023-10-31T07:37:24;51.52;45.66;66.88;;
57439;Laerm;73745;47.466;8.992;2023-10-31T07:39:54;50.08;44.51;59.79;;
57439;Laerm;73745;47.466;8.992;2023-10-31T07:42:47;55.22;45.54;74.14;;
57439;Laerm;73745;47.466;8.992;2023-10-31T07:45:12;54.43;45.17;71.16;;
57439;Laerm;73745;47.466;8.992;2023-10-31T07:48:11;54.25;44.54;71.95;;
57439;Laerm;73745;47.466;8.992;2023-10-31T07:50:30;51.86;44.65;68.01;;
57439;Laerm;73745;47.466;8.992;2023-10-31T07:52:59;56.04;45.01;72.71;;
57439;Laerm;73745;47.466;8.992;2023-10-31T07:55:24;67.22;44.15;82.04;;
57439;Laerm;73745;47.466;8.992;2023-10-31T07:57:52;46.80;43.90;56.64;;
57439;Laerm;73745;47.466;8.992;2023-10-31T08:00:19;48.89;44.07;60.37;;
57439;Laerm;73745;47.466;8.992;2023-10-31T08:03:00;46.22;43.81;51.41;;
57439;Laerm;73745;47.466;8.992;2023-10-31T08:05:26;47.45;44.11;67.61;;
57439;Laerm;73745;47.466;8.992;2023-10-31T08:07:51;46.80;43.63;57.05;;
57439;Laerm;73745;47.466;8.992;2023-10-31T08:10:17;47.06;43.90;53.54;;
57439;Laerm;73745;47.466;8.992;2023-10-31T08:12:42;51.39;44.15;68.79;;
57439;Laerm;73745;47.466;8.992;2023-10-31T08:15:11;46.93;43.77;61.90;;
57439;Laerm;73745;47.466;8.992;2023-10-31T08:17:36;50.48;44.03;64.82;;
57439;Laerm;73745;47.466;8.992;2023-10-31T08:20:08;53.46;43.94;70.69;;
57439;Laerm;73745;47.466;8.992;2023-10-31T08:22:35;63.52;44.31;83.62;;
57439;Laerm;73745;47.466;8.992;2023-10-31T08:25:10;48.89;45.20;61.17;;
57439;Laerm;73745;47.466;8.992;2023-10-31T08:27:50;56.06;45.36;69.33;;
57439;Laerm;73745;47.466;8.992;2023-10-31T08:30:29;49.75;45.27;67.72;;
57439;Laerm;73745;47.466;8.992;2023-10-31T08:32:55;51.77;44.73;66.02;;
57439;Laerm;73745;47.466;8.992;2023-10-31T08:35:21;49.17;45.27;63.12;;
57439;Laerm;73745;47.466;8.992;2023-10-31T08:37:46;52.19;45.45;63.19;;
57439;Laerm;73745;47.466;8.992;2023-10-31T08:40:12;50.67;45.33;62.91;;
57439;Laerm;73745;47.466;8.992;2023-10-31T08:42:37;49.80;46.23;56.93;;
57439;Laerm;73745;47.466;8.992;2023-10-31T08:45:03;66.14;45.63;83.09;;
57439;Laerm;73745;47.466;8.992;2023-10-31T08:47:30;51.44;45.75;62.84;;
57439;Laerm;73745;47.466;8.992;2023-10-31T08:49:55;54.12;45.11;72.57;;
57439;Laerm;73745;47.466;8.992;2023-10-31T08:52:21;49.91;45.45;71.17;;
57439;Laerm;73745;47.466;8.992;2023-10-31T08:54:47;48.76;45.30;57.71;;
57439;Laerm;73745;47.466;8.992;2023-10-31T08:57:25;48.49;45.27;62.93;;
57439;Laerm;73745;47.466;8.992;2023-10-31T08:59:50;51.51;44.54;62.48;;
57439;Laerm;73745;47.466;8.992;2023-10-31T09:02:16;52.17;46.62;62.77;;
57439;Laerm;73745;47.466;8.992;2023-10-31T09:04:44;59.27;45.36;76.15;;
57439;Laerm;73745;47.466;8.992;2023-10-31T09:07:10;52.17;44.97;74.49;;
57439;Laerm;73745;47.466;8.992;2023-10-31T09:09:35;51.15;45.45;64.08;;
57439;Laerm;73745;47.466;8.992;2023-10-31T09:12:00;53.43;45.01;69.68;;
57439;Laerm;73745;47.466;8.992;2023-10-31T09:14:26;50.06;44.65;59.15;;
57439;Laerm;73745;47.466;8.992;2023-10-31T09:16:51;52.03;44.73;68.89;;
57439;Laerm;73745;47.466;8.992;2023-10-31T09:19:17;57.80;44.51;75.04;;
57439;Laerm;73745;47.466;8.992;2023-10-31T09:21:43;51.42;44.72;65.69;;
57439;Laerm;73745;47.466;8.992;2023-10-31T09:24:08;51.45;45.33;70.58;;
57439;Laerm;73745;47.466;8.992;2023-10-31T09:26:34;55.39;44.97;79.52;;
57439;Laerm;73745;47.466;8.992;2023-10-31T09:29:02;49.56;45.17;70.26;;
57439;Laerm;73745;47.466;8.992;2023-10-31T09:31:28;50.86;44.87;66.18;;
57439;Laerm;73745;47.466;8.992;2023-10-31T09:33:54;50.90;45.11;64.88;;
57439;Laerm;73745;47.466;8.992;2023-10-31T09:36:19;56.91;45.57;72.35;;
57439;Laerm;73745;47.466;8.992;2023-10-31T09:38:45;53.30;44.76;69.58;;
57439;Laerm;73745;47.466;8.992;2023-10-31T09:41:18;50.39;45.69;66.81;;
57439;Laerm;73745;47.466;8.992;2023-10-31T09:43:43;51.47;46.25;71.84;;
57439;Laerm;73745;47.466;8.992;2023-10-31T09:46:18;58.37;46.64;79.45;;
57439;Laerm;73745;47.466;8.992;2023-10-31T09:48:44;53.95;45.57;69.09;;
57439;Laerm;73745;47.466;8.992;2023-10-31T09:51:09;50.06;45.99;70.80;;
57439;Laerm;73745;47.466;8.992;2023-10-31T09:53:38;53.05;45.63;73.34;;
57439;Laerm;73745;47.466;8.992;2023-10-31T09:56:06;51.17;45.33;69.13;;
57439;Laerm;73745;47.466;8.992;2023-10-31T10:01:34;57.50;46.07;74.48;;
57439;Laerm;73745;47.466;8.992;2023-10-31T10:03:59;59.50;48.71;75.69;;
57439;Laerm;73745;47.466;8.992;2023-10-31T10:06:25;56.31;45.33;70.04;;
57439;Laerm;73745;47.466;8.992;2023-10-31T10:08:55;48.06;44.35;62.27;;
57439;Laerm;73745;47.466;8.992;2023-10-31T10:11:37;50.33;44.92;69.35;;
57439;Laerm;73745;47.466;8.992;2023-10-31T10:14:11;48.42;44.23;62.66;;
57439;Laerm;73745;47.466;8.992;2023-10-31T10:17:23;48.21;44.07;61.44;;
57439;Laerm;73745;47.466;8.992;2023-10-31T10:20:08;48.73;44.23;69.60;;
57439;Laerm;73745;47.466;8.992;2023-10-31T10:22:40;57.81;44.90;72.95;;
57439;Laerm;73745;47.466;8.992;2023-10-31T10:25:07;52.00;43.77;67.52;;
57439;Laerm;73745;47.466;8.992;2023-10-31T10:27:33;47.78;44.15;59.33;;
57439;Laerm;73745;47.466;8.992;2023-10-31T10:29:59;50.69;45.69;62.81;;
57439;Laerm;73745;47.466;8.992;2023-10-31T10:32:25;47.93;44.03;58.98;;
57439;Laerm;73745;47.466;8.992;2023-10-31T10:34:50;51.98;45.17;67.28;;
57439;Laerm;73745;47.466;8.992;2023-10-31T10:37:16;51.70;43.81;68.33;;
57439;Laerm;73745;47.466;8.992;2023-10-31T10:39:44;49.12;43.94;69.03;;
57439;Laerm;73745;47.466;8.992;2023-10-31T10:42:19;52.57;45.11;70.49;;
57439;Laerm;73745;47.466;8.992;2023-10-31T10:44:46;50.66;45.66;66.05;;
57439;Laerm;73745;47.466;8.992;2023-10-31T10:47:27;49.11;45.43;57.46;;
57439;Laerm;73745;47.466;8.992;2023-10-31T10:49:53;55.53;44.15;76.17;;
57439;Laerm;73745;47.466;8.992;2023-10-31T10:52:23;54.35;44.62;66.83;;
57439;Laerm;73745;47.466;8.992;2023-10-31T10:59:56;60.95;44.65;87.03;;
57439;Laerm;73745;47.466;8.992;2023-10-31T11:02:24;54.41;43.90;69.51;;
57439;Laerm;73745;47.466;8.992;2023-10-31T11:07:45;53.19;44.19;70.49;;
57439;Laerm;73745;47.466;8.992;2023-10-31T11:10:14;55.30;44.80;71.72;;
57439;Laerm;73745;47.466;8.992;2023-10-31T11:12:48;46.68;43.63;52.27;;
57439;Laerm;73745;47.466;8.992;2023-10-31T11:15:16;51.82;44.11;64.97;;
57439;Laerm;73745;47.466;8.992;2023-10-31T11:17:45;53.95;43.49;82.86;;
57439;Laerm;73745;47.466;8.992;2023-10-31T11:20:12;46.23;43.49;56.29;;
57439;Laerm;73745;47.466;8.992;2023-10-31T11:22:40;46.34;43.94;58.24;;
57439;Laerm;73745;47.466;8.992;2023-10-31T11:25:19;52.10;43.44;69.46;;
57439;Laerm;73745;47.466;8.992;2023-10-31T11:27:46;54.92;43.90;71.15;;
57439;Laerm;73745;47.466;8.992;2023-10-31T11:30:28;54.15;44.15;69.87;;
57439;Laerm;73745;47.466;8.992;2023-10-31T11:32:55;48.47;43.49;62.72;;
57439;Laerm;73745;47.466;8.992;2023-10-31T11:35:23;48.37;43.72;69.65;;
57439;Laerm;73745;47.466;8.992;2023-10-31T11:38:01;54.79;43.34;70.26;;
57439;Laerm;73745;47.466;8.992;2023-10-31T11:40:28;58.35;43.58;78.23;;
57439;Laerm;73745;47.466;8.992;2023-10-31T11:42:53;51.98;43.19;71.13;;
57439;Laerm;73745;47.466;8.992;2023-10-31T11:48:07;55.28;43.63;77.69;;
57439;Laerm;73745;47.466;8.992;2023-10-31T11:50:33;47.41;44.19;55.43;;
57439;Laerm;73745;47.466;8.992;2023-10-31T11:55:39;46.73;43.77;51.85;;
57439;Laerm;73745;47.466;8.992;2023-10-31T12:00:56;50.11;43.34;74.46;;
57439;Laerm;73745;47.466;8.992;2023-10-31T12:03:41;56.69;43.60;70.36;;
57439;Laerm;73745;47.466;8.992;2023-10-31T12:06:08;50.90;45.01;59.18;;
57439;Laerm;73745;47.466;8.992;2023-10-31T12:08:38;54.37;46.59;67.62;;
57439;Laerm;73745;47.466;8.992;2023-10-31T12:11:05;50.03;46.02;61.97;;
57439;Laerm;73745;47.466;8.992;2023-10-31T12:14:02;56.00;46.23;82.87;;
57439;Laerm;73745;47.466;8.992;2023-10-31T12:16:30;64.86;45.69;81.53;;
57439;Laerm;73745;47.466;8.992;2023-10-31T12:19:02;52.85;46.48;72.33;;
57439;Laerm;73745;47.466;8.992;2023-10-31T12:24:03;51.98;46.30;63.71;;
57439;Laerm;73745;47.466;8.992;2023-10-31T12:26:33;49.52;45.42;62.29;;
57439;Laerm;73745;47.466;8.992;2023-10-31T12:29:06;49.44;45.01;61.76;;
57439;Laerm;73745;47.466;8.992;2023-10-31T12:31:31;58.71;45.75;74.97;;
57439;Laerm;73745;47.466;8.992;2023-10-31T12:34:06;49.10;44.98;63.98;;
57439;Laerm;73745;47.466;8.992;2023-10-31T12:36:35;48.71;45.11;56.38;;
57439;Laerm;73745;47.466;8.992;2023-10-31T12:41:43;50.92;45.60;61.79;;
57439;Laerm;73745;47.466;8.992;2023-10-31T12:44:08;55.02;45.33;73.17;;
57439;Laerm;73745;47.466;8.992;2023-10-31T12:46:40;60.33;46.73;77.94;;
57439;Laerm;73745;47.466;8.992;2023-10-31T12:49:11;53.16;46.35;76.41;;
57439;Laerm;73745;47.466;8.992;2023-10-31T12:52:27;52.14;45.23;67.04;;
57439;Laerm;73745;47.466;8.992;2023-10-31T12:54:29;50.49;44.51;64.32;;
57439;Laerm;73745;47.466;8.992;2023-10-31T12:57:03;52.74;44.35;70.66;;
57439;Laerm;73745;47.466;8.992;2023-10-31T12:59:29;49.26;44.39;74.73;;
57439;Laerm;73745;47.466;8.992;2023-10-31T13:01:55;52.70;45.86;67.99;;
57439;Laerm;73745;47.466;8.992;2023-10-31T13:04:25;51.77;44.69;70.85;;
57439;Laerm;73745;47.466;8.992;2023-10-31T13:09:30;49.99;45.20;63.16;;
57439;Laerm;73745;47.466;8.992;2023-10-31T13:12:03;48.14;44.76;59.94;;
57439;Laerm;73745;47.466;8.992;2023-10-31T13:14:29;49.92;45.36;65.79;;
57439;Laerm;73745;47.466;8.992;2023-10-31T13:17:11;66.35;47.22;84.43;;
57439;Laerm;73745;47.466;8.992;2023-10-31T13:20:07;50.12;45.94;68.24;;
57439;Laerm;73745;47.466;8.992;2023-10-31T13:25:35;52.87;45.94;74.02;;
57439;Laerm;73745;47.466;8.992;2023-10-31T13:28:03;52.62;45.66;68.64;;
57439;Laerm;73745;47.466;8.992;2023-10-31T13:30:34;53.45;45.54;71.96;;
57439;Laerm;73745;47.466;8.992;2023-10-31T13:36:45;47.81;44.76;57.06;;
57439;Laerm;73745;47.466;8.992;2023-10-31T13:39:11;49.05;44.94;60.73;;
57439;Laerm;73745;47.466;8.992;2023-10-31T13:41:48;51.35;45.17;70.59;;
57439;Laerm;73745;47.466;8.992;2023-10-31T13:44:13;49.41;44.97;59.92;;
57439;Laerm;73745;47.466;8.992;2023-10-31T13:46:38;47.63;43.77;61.66;;
57439;Laerm;73745;47.466;8.992;2023-10-31T13:49:07;67.77;45.01;86.64;;
57439;Laerm;73745;47.466;8.992;2023-10-31T13:52:11;53.16;45.04;71.77;;
57439;Laerm;73745;47.466;8.992;2023-10-31T13:54:46;50.97;45.36;64.55;;
57439;Laerm;73745;47.466;8.992;2023-10-31T13:57:13;47.79;44.15;56.61;;
57439;Laerm;73745;47.466;8.992;2023-10-31T13:59:39;49.63;44.47;66.12;;
57439;Laerm;73745;47.466;8.992;2023-10-31T14:02:05;47.95;44.35;57.07;;
57439;Laerm;73745;47.466;8.992;2023-10-31T14:04:30;49.22;44.23;66.35;;
57439;Laerm;73745;47.466;8.992;2023-10-31T14:06:56;48.86;44.43;69.87;;
57439;Laerm;73745;47.466;8.992;2023-10-31T14:09:22;49.24;44.31;63.29;;
57439;Laerm;73745;47.466;8.992;2023-10-31T14:11:48;48.53;44.80;65.24;;
57439;Laerm;73745;47.466;8.992;2023-10-31T14:14:20;50.07;44.73;62.71;;
57439;Laerm;73745;47.466;8.992;2023-10-31T14:17:01;50.83;45.14;68.52;;
57439;Laerm;73745;47.466;8.992;2023-10-31T14:20:05;50.54;44.15;66.00;;
57439;Laerm;73745;47.466;8.992;2023-10-31T14:22:31;52.30;44.47;74.18;;